sensor_id;sensor_type;location;lat;lon;timestamp;P1;durP1;ratioP1;P2;durP2;ratioP2
82930;SDS011;72705;53.346;10.248;2024-02-26T00:04:51;14.07;;;7.53;;
82930;SDS011;72705;53.346;10.248;2024-02-26T00:07:25;12.65;;;7.30;;
82930;SDS011;72705;53.346;10.248;2024-02-26T00:09:50;13.63;;;7.65;;
82930;SDS011;72705;53.346;10.248;2024-02-26T00:12:22;16.63;;;8.90;;
82930;SDS011;72705;53.346;10.248;2024-02-26T00:14:47;13.57;;;7.95;;
82930;SDS011;72705;53.346;10.248;2024-02-26T00:17:14;16.42;;;8.70;;
82930;SDS011;72705;53.346;10.248;2024-02-26T00:19:41;15.73;;;8.75;;
82930;SDS011;72705;53.346;10.248;2024-02-26T00:22:07;14.40;;;8.65;;
82930;SDS011;72705;53.346;10.248;2024-02-26T00:24:33;18.15;;;9.10;;
82930;SDS011;72705;53.346;10.248;2024-02-26T00:26:58;16.00;;;8.60;;
82930;SDS011;72705;53.346;10.248;2024-02-26T00:29:24;19.67;;;8.68;;
82930;SDS011;72705;53.346;10.248;2024-02-26T00:31:50;14.30;;;8.15;;
82930;SDS011;72705;53.346;10.248;2024-02-26T00:34:16;14.70;;;8.68;;
82930;SDS011;72705;53.346;10.248;2024-02-26T00:36:41;15.73;;;7.50;;
82930;SDS011;72705;53.346;10.248;2024-02-26T00:39:06;16.53;;;7.57;;
82930;SDS011;72705;53.346;10.248;2024-02-26T00:41:32;16.47;;;8.37;;
82930;SDS011;72705;53.346;10.248;2024-02-26T00:43:57;14.03;;;7.47;;
82930;SDS011;72705;53.346;10.248;2024-02-26T00:46:22;12.13;;;7.20;;
82930;SDS011;72705;53.346;10.248;2024-02-26T00:48:47;10.30;;;7.27;;
82930;SDS011;72705;53.346;10.248;2024-02-26T00:51:16;12.27;;;7.77;;
82930;SDS011;72705;53.346;10.248;2024-02-26T00:53:41;12.10;;;6.47;;
82930;SDS011;72705;53.346;10.248;2024-02-26T00:56:06;18.43;;;7.70;;
82930;SDS011;72705;53.346;10.248;2024-02-26T00:58:32;13.03;;;6.63;;
82930;SDS011;72705;53.346;10.248;2024-02-26T01:01:00;37.08;;;9.05;;
82930;SDS011;72705;53.346;10.248;2024-02-26T01:03:26;16.13;;;7.45;;
82930;SDS011;72705;53.346;10.248;2024-02-26T01:05:51;12.67;;;7.23;;
82930;SDS011;72705;53.346;10.248;2024-02-26T01:08:26;12.23;;;7.50;;
82930;SDS011;72705;53.346;10.248;2024-02-26T01:10:51;12.70;;;6.68;;
82930;SDS011;72705;53.346;10.248;2024-02-26T01:13:16;12.85;;;7.00;;
82930;SDS011;72705;53.346;10.248;2024-02-26T01:15:42;12.20;;;7.13;;
82930;SDS011;72705;53.346;10.248;2024-02-26T01:18:09;13.65;;;7.65;;
82930;SDS011;72705;53.346;10.248;2024-02-26T01:20:40;12.77;;;6.55;;
82930;SDS011;72705;53.346;10.248;2024-02-26T01:23:05;14.18;;;7.45;;
82930;SDS011;72705;53.346;10.248;2024-02-26T01:25:31;12.47;;;7.03;;
82930;SDS011;72705;53.346;10.248;2024-02-26T01:27:58;13.85;;;7.43;;
82930;SDS011;72705;53.346;10.248;2024-02-26T01:30:24;13.68;;;7.07;;
82930;SDS011;72705;53.346;10.248;2024-02-26T01:32:49;11.43;;;6.47;;
82930;SDS011;72705;53.346;10.248;2024-02-26T01:35:14;12.70;;;6.80;;
82930;SDS011;72705;53.346;10.248;2024-02-26T01:37:39;11.57;;;7.23;;
82930;SDS011;72705;53.346;10.248;2024-02-26T01:40:06;13.27;;;7.15;;
82930;SDS011;72705;53.346;10.248;2024-02-26T01:42:32;13.43;;;7.53;;
82930;SDS011;72705;53.346;10.248;2024-02-26T01:44:58;11.70;;;7.75;;
82930;SDS011;72705;53.346;10.248;2024-02-26T01:47:24;14.40;;;8.05;;
82930;SDS011;72705;53.346;10.248;2024-02-26T01:49:51;11.88;;;7.43;;
82930;SDS011;72705;53.346;10.248;2024-02-26T01:52:21;12.10;;;7.25;;
82930;SDS011;72705;53.346;10.248;2024-02-26T01:54:47;12.93;;;6.90;;
82930;SDS011;72705;53.346;10.248;2024-02-26T01:57:13;14.48;;;7.93;;
82930;SDS011;72705;53.346;10.248;2024-02-26T01:59:39;17.33;;;7.80;;
82930;SDS011;72705;53.346;10.248;2024-02-26T02:02:07;13.55;;;7.65;;
82930;SDS011;72705;53.346;10.248;2024-02-26T02:04:40;16.60;;;7.93;;
82930;SDS011;72705;53.346;10.248;2024-02-26T02:07:05;16.42;;;7.97;;
82930;SDS011;72705;53.346;10.248;2024-02-26T02:09:31;12.40;;;7.93;;
82930;SDS011;72705;53.346;10.248;2024-02-26T02:11:59;14.80;;;7.60;;
82930;SDS011;72705;53.346;10.248;2024-02-26T02:14:25;13.00;;;7.82;;
82930;SDS011;72705;53.346;10.248;2024-02-26T02:16:51;12.77;;;7.30;;
82930;SDS011;72705;53.346;10.248;2024-02-26T02:19:16;13.97;;;7.73;;
82930;SDS011;72705;53.346;10.248;2024-02-26T02:24:20;13.38;;;7.35;;
82930;SDS011;72705;53.346;10.248;2024-02-26T02:26:45;15.10;;;7.97;;
82930;SDS011;72705;53.346;10.248;2024-02-26T02:29:10;14.20;;;7.80;;
82930;SDS011;72705;53.346;10.248;2024-02-26T02:31:37;16.10;;;8.35;;
82930;SDS011;72705;53.346;10.248;2024-02-26T02:34:02;13.95;;;8.27;;
82930;SDS011;72705;53.346;10.248;2024-02-26T02:36:32;16.23;;;9.35;;
82930;SDS011;72705;53.346;10.248;2024-02-26T02:38:57;15.68;;;7.85;;
82930;SDS011;72705;53.346;10.248;2024-02-26T02:41:23;15.63;;;8.33;;
82930;SDS011;72705;53.346;10.248;2024-02-26T02:43:48;16.55;;;8.65;;
82930;SDS011;72705;53.346;10.248;2024-02-26T02:46:24;14.30;;;8.17;;
82930;SDS011;72705;53.346;10.248;2024-02-26T02:48:49;17.33;;;8.90;;
82930;SDS011;72705;53.346;10.248;2024-02-26T02:51:15;19.25;;;8.38;;
82930;SDS011;72705;53.346;10.248;2024-02-26T02:53:40;13.32;;;7.63;;
82930;SDS011;72705;53.346;10.248;2024-02-26T02:56:05;12.77;;;7.33;;
82930;SDS011;72705;53.346;10.248;2024-02-26T02:58:31;14.85;;;7.88;;
82930;SDS011;72705;53.346;10.248;2024-02-26T03:00:57;14.85;;;7.35;;
82930;SDS011;72705;53.346;10.248;2024-02-26T03:03:22;14.63;;;7.67;;
82930;SDS011;72705;53.346;10.248;2024-02-26T03:05:49;13.80;;;7.03;;
82930;SDS011;72705;53.346;10.248;2024-02-26T03:08:14;11.57;;;6.28;;
82930;SDS011;72705;53.346;10.248;2024-02-26T03:10:41;11.20;;;6.30;;
82930;SDS011;72705;53.346;10.248;2024-02-26T03:15:39;12.70;;;6.97;;
82930;SDS011;72705;53.346;10.248;2024-02-26T03:20:38;11.27;;;6.47;;
82930;SDS011;72705;53.346;10.248;2024-02-26T03:23:03;13.10;;;6.67;;
82930;SDS011;72705;53.346;10.248;2024-02-26T03:25:29;11.75;;;5.93;;
82930;SDS011;72705;53.346;10.248;2024-02-26T03:27:54;10.70;;;7.03;;
82930;SDS011;72705;53.346;10.248;2024-02-26T03:30:19;12.53;;;6.97;;
82930;SDS011;72705;53.346;10.248;2024-02-26T03:32:53;14.80;;;8.07;;
82930;SDS011;72705;53.346;10.248;2024-02-26T03:35:20;13.82;;;7.20;;
82930;SDS011;72705;53.346;10.248;2024-02-26T03:37:46;15.98;;;8.63;;
82930;SDS011;72705;53.346;10.248;2024-02-26T03:40:12;17.85;;;7.90;;
82930;SDS011;72705;53.346;10.248;2024-02-26T03:42:39;21.65;;;8.82;;
82930;SDS011;72705;53.346;10.248;2024-02-26T03:45:07;14.98;;;7.53;;
82930;SDS011;72705;53.346;10.248;2024-02-26T03:47:34;15.48;;;7.70;;
82930;SDS011;72705;53.346;10.248;2024-02-26T03:49:59;16.57;;;8.20;;
82930;SDS011;72705;53.346;10.248;2024-02-26T03:52:24;16.37;;;7.30;;
82930;SDS011;72705;53.346;10.248;2024-02-26T03:54:50;21.35;;;8.18;;
82930;SDS011;72705;53.346;10.248;2024-02-26T03:57:22;15.77;;;7.83;;
82930;SDS011;72705;53.346;10.248;2024-02-26T03:59:47;18.25;;;7.97;;
82930;SDS011;72705;53.346;10.248;2024-02-26T04:02:13;15.67;;;8.07;;
82930;SDS011;72705;53.346;10.248;2024-02-26T04:04:38;17.05;;;7.40;;
82930;SDS011;72705;53.346;10.248;2024-02-26T04:09:36;13.75;;;7.45;;
82930;SDS011;72705;53.346;10.248;2024-02-26T04:12:03;13.73;;;8.18;;
82930;SDS011;72705;53.346;10.248;2024-02-26T04:14:29;15.25;;;7.88;;
82930;SDS011;72705;53.346;10.248;2024-02-26T04:16:54;16.35;;;7.28;;
82930;SDS011;72705;53.346;10.248;2024-02-26T04:19:19;19.50;;;7.17;;
82930;SDS011;72705;53.346;10.248;2024-02-26T04:21:48;17.65;;;7.90;;
82930;SDS011;72705;53.346;10.248;2024-02-26T04:24:14;16.38;;;7.38;;
82930;SDS011;72705;53.346;10.248;2024-02-26T04:26:40;16.67;;;7.30;;
82930;SDS011;72705;53.346;10.248;2024-02-26T04:29:05;13.97;;;7.03;;
82930;SDS011;72705;53.346;10.248;2024-02-26T04:31:30;15.73;;;7.57;;
82930;SDS011;72705;53.346;10.248;2024-02-26T04:33:58;22.13;;;7.97;;
82930;SDS011;72705;53.346;10.248;2024-02-26T04:36:24;22.98;;;8.30;;
82930;SDS011;72705;53.346;10.248;2024-02-26T04:38:51;25.55;;;8.60;;
82930;SDS011;72705;53.346;10.248;2024-02-26T04:41:16;19.48;;;8.00;;
82930;SDS011;72705;53.346;10.248;2024-02-26T04:43:41;18.57;;;8.13;;
82930;SDS011;72705;53.346;10.248;2024-02-26T04:46:12;15.98;;;8.05;;
82930;SDS011;72705;53.346;10.248;2024-02-26T04:48:38;19.13;;;8.40;;
82930;SDS011;72705;53.346;10.248;2024-02-26T04:51:04;18.25;;;7.80;;
82930;SDS011;72705;53.346;10.248;2024-02-26T04:53:31;16.30;;;8.02;;
82930;SDS011;72705;53.346;10.248;2024-02-26T04:55:56;16.15;;;8.15;;
82930;SDS011;72705;53.346;10.248;2024-02-26T04:58:21;17.63;;;7.40;;
82930;SDS011;72705;53.346;10.248;2024-02-26T05:00:48;17.10;;;8.13;;
82930;SDS011;72705;53.346;10.248;2024-02-26T05:03:13;18.45;;;9.45;;
82930;SDS011;72705;53.346;10.248;2024-02-26T05:05:44;23.02;;;9.48;;
82930;SDS011;72705;53.346;10.248;2024-02-26T05:08:10;22.00;;;9.15;;
82930;SDS011;72705;53.346;10.248;2024-02-26T05:10:37;23.83;;;9.97;;
82930;SDS011;72705;53.346;10.248;2024-02-26T05:13:05;22.95;;;9.93;;
82930;SDS011;72705;53.346;10.248;2024-02-26T05:15:31;23.15;;;10.50;;
82930;SDS011;72705;53.346;10.248;2024-02-26T05:17:56;32.70;;;10.90;;
82930;SDS011;72705;53.346;10.248;2024-02-26T05:20:21;22.17;;;9.40;;
82930;SDS011;72705;53.346;10.248;2024-02-26T05:22:46;21.10;;;9.55;;
82930;SDS011;72705;53.346;10.248;2024-02-26T05:25:18;26.35;;;10.43;;
82930;SDS011;72705;53.346;10.248;2024-02-26T05:27:47;24.65;;;11.07;;
82930;SDS011;72705;53.346;10.248;2024-02-26T05:30:13;29.27;;;15.55;;
82930;SDS011;72705;53.346;10.248;2024-02-26T05:32:39;24.05;;;11.50;;
82930;SDS011;72705;53.346;10.248;2024-02-26T05:35:05;19.15;;;10.75;;
82930;SDS011;72705;53.346;10.248;2024-02-26T05:37:34;17.17;;;9.98;;
82930;SDS011;72705;53.346;10.248;2024-02-26T05:40:01;19.10;;;10.50;;
82930;SDS011;72705;53.346;10.248;2024-02-26T05:42:29;19.35;;;10.07;;
82930;SDS011;72705;53.346;10.248;2024-02-26T05:44:59;19.70;;;9.63;;
82930;SDS011;72705;53.346;10.248;2024-02-26T05:47:33;20.70;;;9.55;;
82930;SDS011;72705;53.346;10.248;2024-02-26T05:52:53;24.25;;;11.50;;
82930;SDS011;72705;53.346;10.248;2024-02-26T05:55:20;20.38;;;10.68;;
82930;SDS011;72705;53.346;10.248;2024-02-26T05:57:45;20.50;;;9.68;;
82930;SDS011;72705;53.346;10.248;2024-02-26T06:00:10;15.88;;;9.50;;
82930;SDS011;72705;53.346;10.248;2024-02-26T06:02:38;23.52;;;10.40;;
82930;SDS011;72705;53.346;10.248;2024-02-26T06:05:05;25.50;;;10.35;;
82930;SDS011;72705;53.346;10.248;2024-02-26T06:07:33;33.00;;;10.85;;
82930;SDS011;72705;53.346;10.248;2024-02-26T06:10:05;37.63;;;16.23;;
82930;SDS011;72705;53.346;10.248;2024-02-26T06:12:31;38.95;;;15.63;;
82930;SDS011;72705;53.346;10.248;2024-02-26T06:14:56;35.27;;;13.70;;
82930;SDS011;72705;53.346;10.248;2024-02-26T06:17:23;32.60;;;11.95;;
82930;SDS011;72705;53.346;10.248;2024-02-26T06:19:48;36.67;;;9.98;;
82930;SDS011;72705;53.346;10.248;2024-02-26T06:22:13;27.63;;;11.47;;
82930;SDS011;72705;53.346;10.248;2024-02-26T06:24:39;35.17;;;11.63;;
82930;SDS011;72705;53.346;10.248;2024-02-26T06:27:04;22.93;;;10.60;;
82930;SDS011;72705;53.346;10.248;2024-02-26T06:29:29;31.48;;;11.52;;
82930;SDS011;72705;53.346;10.248;2024-02-26T06:31:55;26.70;;;11.80;;
82930;SDS011;72705;53.346;10.248;2024-02-26T06:34:20;38.72;;;14.40;;
82930;SDS011;72705;53.346;10.248;2024-02-26T06:36:46;31.60;;;14.20;;
82930;SDS011;72705;53.346;10.248;2024-02-26T06:41:43;33.83;;;14.85;;
82930;SDS011;72705;53.346;10.248;2024-02-26T06:44:14;43.25;;;18.20;;
82930;SDS011;72705;53.346;10.248;2024-02-26T06:46:40;34.10;;;15.77;;
82930;SDS011;72705;53.346;10.248;2024-02-26T06:49:05;31.13;;;14.67;;
82930;SDS011;72705;53.346;10.248;2024-02-26T06:51:30;26.95;;;14.00;;
82930;SDS011;72705;53.346;10.248;2024-02-26T06:53:56;32.13;;;16.20;;
82930;SDS011;72705;53.346;10.248;2024-02-26T06:56:21;22.93;;;12.40;;
82930;SDS011;72705;53.346;10.248;2024-02-26T06:58:46;19.47;;;11.50;;
82930;SDS011;72705;53.346;10.248;2024-02-26T07:01:12;16.15;;;9.13;;
82930;SDS011;72705;53.346;10.248;2024-02-26T07:03:39;20.33;;;11.40;;
82930;SDS011;72705;53.346;10.248;2024-02-26T07:06:05;24.52;;;11.48;;
82930;SDS011;72705;53.346;10.248;2024-02-26T07:08:30;31.98;;;14.75;;
82930;SDS011;72705;53.346;10.248;2024-02-26T07:10:57;20.47;;;10.43;;
82930;SDS011;72705;53.346;10.248;2024-02-26T07:13:22;18.58;;;10.02;;
82930;SDS011;72705;53.346;10.248;2024-02-26T07:15:48;17.77;;;9.98;;
82930;SDS011;72705;53.346;10.248;2024-02-26T07:18:13;19.60;;;9.93;;
82930;SDS011;72705;53.346;10.248;2024-02-26T07:20:39;19.30;;;10.13;;
82930;SDS011;72705;53.346;10.248;2024-02-26T07:23:04;21.63;;;10.23;;
82930;SDS011;72705;53.346;10.248;2024-02-26T07:25:29;19.50;;;10.00;;
82930;SDS011;72705;53.346;10.248;2024-02-26T07:27:54;18.50;;;9.90;;
82930;SDS011;72705;53.346;10.248;2024-02-26T07:30:20;19.55;;;10.77;;
82930;SDS011;72705;53.346;10.248;2024-02-26T07:32:45;18.25;;;9.63;;
82930;SDS011;72705;53.346;10.248;2024-02-26T07:35:10;20.63;;;10.10;;
82930;SDS011;72705;53.346;10.248;2024-02-26T07:37:36;20.33;;;10.00;;
82930;SDS011;72705;53.346;10.248;2024-02-26T07:40:01;18.97;;;10.07;;
82930;SDS011;72705;53.346;10.248;2024-02-26T07:42:27;16.90;;;9.02;;
82930;SDS011;72705;53.346;10.248;2024-02-26T07:44:52;15.02;;;9.10;;
82930;SDS011;72705;53.346;10.248;2024-02-26T07:47:21;15.50;;;8.83;;
82930;SDS011;72705;53.346;10.248;2024-02-26T07:49:48;20.45;;;10.05;;
82930;SDS011;72705;53.346;10.248;2024-02-26T07:52:14;16.33;;;9.40;;
82930;SDS011;72705;53.346;10.248;2024-02-26T07:54:39;15.43;;;9.73;;
82930;SDS011;72705;53.346;10.248;2024-02-26T07:57:04;15.53;;;9.67;;
82930;SDS011;72705;53.346;10.248;2024-02-26T07:59:31;18.58;;;10.60;;
82930;SDS011;72705;53.346;10.248;2024-02-26T08:01:57;17.25;;;10.02;;
82930;SDS011;72705;53.346;10.248;2024-02-26T08:04:22;21.08;;;11.68;;
82930;SDS011;72705;53.346;10.248;2024-02-26T08:06:48;17.45;;;10.57;;
82930;SDS011;72705;53.346;10.248;2024-02-26T08:09:13;16.37;;;10.20;;
82930;SDS011;72705;53.346;10.248;2024-02-26T08:11:39;16.55;;;9.30;;
82930;SDS011;72705;53.346;10.248;2024-02-26T08:14:04;12.18;;;8.60;;
82930;SDS011;72705;53.346;10.248;2024-02-26T08:16:34;14.95;;;9.80;;
82930;SDS011;72705;53.346;10.248;2024-02-26T08:18:59;15.27;;;9.32;;
82930;SDS011;72705;53.346;10.248;2024-02-26T08:21:24;16.30;;;9.77;;
82930;SDS011;72705;53.346;10.248;2024-02-26T08:26:18;16.00;;;9.10;;
82930;SDS011;72705;53.346;10.248;2024-02-26T08:28:45;16.50;;;10.27;;
82930;SDS011;72705;53.346;10.248;2024-02-26T08:31:12;15.25;;;9.30;;
82930;SDS011;72705;53.346;10.248;2024-02-26T08:33:38;15.40;;;9.35;;
82930;SDS011;72705;53.346;10.248;2024-02-26T08:36:04;16.27;;;9.90;;
82930;SDS011;72705;53.346;10.248;2024-02-26T08:38:30;19.00;;;10.63;;
82930;SDS011;72705;53.346;10.248;2024-02-26T08:40:55;13.20;;;9.23;;
82930;SDS011;72705;53.346;10.248;2024-02-26T08:43:20;16.40;;;11.10;;
82930;SDS011;72705;53.346;10.248;2024-02-26T08:45:46;16.90;;;10.00;;
82930;SDS011;72705;53.346;10.248;2024-02-26T08:48:11;16.90;;;9.38;;
82930;SDS011;72705;53.346;10.248;2024-02-26T08:50:36;15.87;;;9.47;;
82930;SDS011;72705;53.346;10.248;2024-02-26T08:53:02;15.70;;;10.10;;
82930;SDS011;72705;53.346;10.248;2024-02-26T08:55:28;16.23;;;9.52;;
82930;SDS011;72705;53.346;10.248;2024-02-26T08:57:57;14.80;;;9.50;;
82930;SDS011;72705;53.346;10.248;2024-02-26T09:00:22;15.70;;;10.13;;
82930;SDS011;72705;53.346;10.248;2024-02-26T09:02:48;14.53;;;9.97;;
82930;SDS011;72705;53.346;10.248;2024-02-26T09:05:14;16.63;;;9.38;;
82930;SDS011;72705;53.346;10.248;2024-02-26T09:07:39;14.43;;;9.35;;
82930;SDS011;72705;53.346;10.248;2024-02-26T09:10:05;14.43;;;8.57;;
82930;SDS011;72705;53.346;10.248;2024-02-26T09:12:33;16.35;;;9.05;;
82930;SDS011;72705;53.346;10.248;2024-02-26T09:14:58;15.70;;;9.83;;
82930;SDS011;72705;53.346;10.248;2024-02-26T09:17:24;13.43;;;8.73;;
82930;SDS011;72705;53.346;10.248;2024-02-26T09:19:49;12.20;;;8.10;;
82930;SDS011;72705;53.346;10.248;2024-02-26T09:22:14;13.00;;;8.67;;
82930;SDS011;72705;53.346;10.248;2024-02-26T09:24:44;12.53;;;8.53;;
82930;SDS011;72705;53.346;10.248;2024-02-26T09:27:09;15.43;;;8.35;;
82930;SDS011;72705;53.346;10.248;2024-02-26T09:29:35;13.27;;;8.10;;
82930;SDS011;72705;53.346;10.248;2024-02-26T09:32:01;11.50;;;7.47;;
82930;SDS011;72705;53.346;10.248;2024-02-26T09:34:26;12.50;;;7.72;;
82930;SDS011;72705;53.346;10.248;2024-02-26T09:36:52;11.63;;;7.80;;
82930;SDS011;72705;53.346;10.248;2024-02-26T09:39:17;11.50;;;8.57;;
82930;SDS011;72705;53.346;10.248;2024-02-26T09:41:46;12.63;;;8.05;;
82930;SDS011;72705;53.346;10.248;2024-02-26T09:44:15;10.40;;;7.10;;
82930;SDS011;72705;53.346;10.248;2024-02-26T09:46:49;10.95;;;7.30;;
82930;SDS011;72705;53.346;10.248;2024-02-26T09:49:18;9.05;;;6.53;;
82930;SDS011;72705;53.346;10.248;2024-02-26T09:51:47;12.30;;;7.25;;
82930;SDS011;72705;53.346;10.248;2024-02-26T09:54:14;9.68;;;7.10;;
82930;SDS011;72705;53.346;10.248;2024-02-26T09:56:40;9.95;;;6.63;;
82930;SDS011;72705;53.346;10.248;2024-02-26T09:59:09;12.48;;;6.82;;
82930;SDS011;72705;53.346;10.248;2024-02-26T10:01:38;10.57;;;6.38;;
82930;SDS011;72705;53.346;10.248;2024-02-26T10:04:07;9.93;;;6.18;;
82930;SDS011;72705;53.346;10.248;2024-02-26T10:06:34;11.73;;;6.50;;
82930;SDS011;72705;53.346;10.248;2024-02-26T10:09:01;8.50;;;5.97;;
82930;SDS011;72705;53.346;10.248;2024-02-26T10:11:31;8.23;;;5.90;;
82930;SDS011;72705;53.346;10.248;2024-02-26T10:13:57;8.32;;;5.75;;
82930;SDS011;72705;53.346;10.248;2024-02-26T10:16:22;8.07;;;5.70;;
82930;SDS011;72705;53.346;10.248;2024-02-26T10:18:51;6.88;;;5.63;;
82930;SDS011;72705;53.346;10.248;2024-02-26T10:21:19;6.55;;;5.80;;
82930;SDS011;72705;53.346;10.248;2024-02-26T10:23:45;6.68;;;5.28;;
82930;SDS011;72705;53.346;10.248;2024-02-26T10:26:12;8.05;;;5.43;;
82930;SDS011;72705;53.346;10.248;2024-02-26T10:28:39;6.82;;;4.85;;
82930;SDS011;72705;53.346;10.248;2024-02-26T10:31:05;9.00;;;5.82;;
82930;SDS011;72705;53.346;10.248;2024-02-26T10:33:33;7.65;;;5.22;;
82930;SDS011;72705;53.346;10.248;2024-02-26T10:36:01;8.02;;;5.50;;
82930;SDS011;72705;53.346;10.248;2024-02-26T10:38:29;7.95;;;5.68;;
82930;SDS011;72705;53.346;10.248;2024-02-26T10:40:55;5.90;;;4.50;;
82930;SDS011;72705;53.346;10.248;2024-02-26T10:43:20;7.43;;;5.30;;
82930;SDS011;72705;53.346;10.248;2024-02-26T10:45:45;7.00;;;4.97;;
82930;SDS011;72705;53.346;10.248;2024-02-26T10:48:13;8.85;;;5.30;;
82930;SDS011;72705;53.346;10.248;2024-02-26T10:50:39;7.03;;;4.90;;
82930;SDS011;72705;53.346;10.248;2024-02-26T10:53:07;8.27;;;5.82;;
82930;SDS011;72705;53.346;10.248;2024-02-26T10:55:40;6.95;;;5.40;;
82930;SDS011;72705;53.346;10.248;2024-02-26T10:58:09;7.65;;;5.28;;
82930;SDS011;72705;53.346;10.248;2024-02-26T11:00:37;6.43;;;4.72;;
82930;SDS011;72705;53.346;10.248;2024-02-26T11:03:04;8.77;;;5.68;;
82930;SDS011;72705;53.346;10.248;2024-02-26T11:05:33;6.60;;;4.53;;
82930;SDS011;72705;53.346;10.248;2024-02-26T11:08:00;7.85;;;5.00;;
82930;SDS011;72705;53.346;10.248;2024-02-26T11:10:26;7.10;;;5.03;;
82930;SDS011;72705;53.346;10.248;2024-02-26T11:12:54;5.55;;;4.40;;
82930;SDS011;72705;53.346;10.248;2024-02-26T11:15:24;7.07;;;4.95;;
82930;SDS011;72705;53.346;10.248;2024-02-26T11:17:50;6.55;;;5.15;;
82930;SDS011;72705;53.346;10.248;2024-02-26T11:20:17;14.80;;;10.38;;
82930;SDS011;72705;53.346;10.248;2024-02-26T11:22:45;6.82;;;4.78;;
82930;SDS011;72705;53.346;10.248;2024-02-26T11:25:11;5.00;;;4.38;;
82930;SDS011;72705;53.346;10.248;2024-02-26T11:27:43;6.95;;;4.32;;
82930;SDS011;72705;53.346;10.248;2024-02-26T11:30:13;6.32;;;4.60;;
82930;SDS011;72705;53.346;10.248;2024-02-26T11:32:40;6.93;;;4.25;;
82930;SDS011;72705;53.346;10.248;2024-02-26T11:35:09;5.53;;;4.55;;
82930;SDS011;72705;53.346;10.248;2024-02-26T11:37:35;6.90;;;4.25;;
82930;SDS011;72705;53.346;10.248;2024-02-26T11:40:01;5.47;;;4.18;;
82930;SDS011;72705;53.346;10.248;2024-02-26T11:42:27;6.57;;;5.15;;
82930;SDS011;72705;53.346;10.248;2024-02-26T11:44:53;6.13;;;3.80;;
82930;SDS011;72705;53.346;10.248;2024-02-26T11:47:21;5.40;;;4.32;;
82930;SDS011;72705;53.346;10.248;2024-02-26T11:49:48;5.68;;;4.28;;
82930;SDS011;72705;53.346;10.248;2024-02-26T11:52:14;6.22;;;3.88;;
82930;SDS011;72705;53.346;10.248;2024-02-26T11:54:44;4.50;;;3.45;;
82930;SDS011;72705;53.346;10.248;2024-02-26T11:57:21;4.63;;;3.83;;
82930;SDS011;72705;53.346;10.248;2024-02-26T12:02:44;4.97;;;3.60;;
82930;SDS011;72705;53.346;10.248;2024-02-26T12:05:21;5.35;;;3.70;;
82930;SDS011;72705;53.346;10.248;2024-02-26T12:08:04;5.35;;;3.83;;
82930;SDS011;72705;53.346;10.248;2024-02-26T12:10:39;4.85;;;3.28;;
82930;SDS011;72705;53.346;10.248;2024-02-26T12:13:10;4.70;;;3.25;;
82930;SDS011;72705;53.346;10.248;2024-02-26T12:15:41;4.28;;;3.30;;
82930;SDS011;72705;53.346;10.248;2024-02-26T12:18:11;7.03;;;3.97;;
82930;SDS011;72705;53.346;10.248;2024-02-26T12:20:42;5.90;;;3.25;;
82930;SDS011;72705;53.346;10.248;2024-02-26T12:23:08;5.15;;;3.33;;
82930;SDS011;72705;53.346;10.248;2024-02-26T12:25:39;4.78;;;3.47;;
82930;SDS011;72705;53.346;10.248;2024-02-26T12:28:04;5.30;;;3.53;;
82930;SDS011;72705;53.346;10.248;2024-02-26T12:30:29;4.07;;;3.60;;
82930;SDS011;72705;53.346;10.248;2024-02-26T12:32:56;5.40;;;3.03;;
82930;SDS011;72705;53.346;10.248;2024-02-26T12:35:24;5.15;;;3.80;;
82930;SDS011;72705;53.346;10.248;2024-02-26T12:37:50;8.27;;;4.43;;
82930;SDS011;72705;53.346;10.248;2024-02-26T12:40:16;5.90;;;4.07;;
82930;SDS011;72705;53.346;10.248;2024-02-26T12:42:42;7.97;;;5.63;;
82930;SDS011;72705;53.346;10.248;2024-02-26T12:45:08;8.80;;;5.60;;
82930;SDS011;72705;53.346;10.248;2024-02-26T12:47:39;6.85;;;5.07;;
82930;SDS011;72705;53.346;10.248;2024-02-26T12:50:06;6.97;;;5.28;;
82930;SDS011;72705;53.346;10.248;2024-02-26T12:52:34;7.55;;;6.05;;
82930;SDS011;72705;53.346;10.248;2024-02-26T12:55:01;10.70;;;5.95;;
82930;SDS011;72705;53.346;10.248;2024-02-26T12:57:28;9.40;;;6.50;;
82930;SDS011;72705;53.346;10.248;2024-02-26T12:59:56;7.45;;;5.55;;
82930;SDS011;72705;53.346;10.248;2024-02-26T13:02:22;7.68;;;5.78;;
82930;SDS011;72705;53.346;10.248;2024-02-26T13:04:48;8.73;;;6.40;;
82930;SDS011;72705;53.346;10.248;2024-02-26T13:07:13;10.55;;;6.57;;
82930;SDS011;72705;53.346;10.248;2024-02-26T13:09:39;12.90;;;7.60;;
82930;SDS011;72705;53.346;10.248;2024-02-26T13:12:05;9.70;;;7.10;;
82930;SDS011;72705;53.346;10.248;2024-02-26T13:14:31;12.65;;;7.80;;
82930;SDS011;72705;53.346;10.248;2024-02-26T13:16:58;12.57;;;8.18;;
82930;SDS011;72705;53.346;10.248;2024-02-26T13:19:26;12.07;;;8.48;;
82930;SDS011;72705;53.346;10.248;2024-02-26T13:21:52;11.45;;;7.47;;
82930;SDS011;72705;53.346;10.248;2024-02-26T13:24:19;9.57;;;7.18;;
82930;SDS011;72705;53.346;10.248;2024-02-26T13:26:45;8.63;;;7.45;;
82930;SDS011;72705;53.346;10.248;2024-02-26T13:29:19;10.95;;;7.13;;
82930;SDS011;72705;53.346;10.248;2024-02-26T13:31:45;10.20;;;7.10;;
82930;SDS011;72705;53.346;10.248;2024-02-26T13:34:11;9.85;;;6.65;;
82930;SDS011;72705;53.346;10.248;2024-02-26T13:39:21;10.48;;;6.75;;
82930;SDS011;72705;53.346;10.248;2024-02-26T13:41:51;12.48;;;7.97;;
82930;SDS011;72705;53.346;10.248;2024-02-26T13:44:17;13.90;;;7.93;;
82930;SDS011;72705;53.346;10.248;2024-02-26T13:46:43;9.93;;;6.72;;
82930;SDS011;72705;53.346;10.248;2024-02-26T13:49:09;11.03;;;7.57;;
82930;SDS011;72705;53.346;10.248;2024-02-26T13:51:35;13.48;;;7.00;;
82930;SDS011;72705;53.346;10.248;2024-02-26T13:54:02;12.43;;;8.18;;
82930;SDS011;72705;53.346;10.248;2024-02-26T13:56:27;15.50;;;9.32;;
82930;SDS011;72705;53.346;10.248;2024-02-26T13:58:53;9.55;;;6.28;;
82930;SDS011;72705;53.346;10.248;2024-02-26T14:01:18;10.73;;;6.50;;
82930;SDS011;72705;53.346;10.248;2024-02-26T14:03:43;14.60;;;8.60;;
82930;SDS011;72705;53.346;10.248;2024-02-26T14:06:10;20.42;;;11.60;;
82930;SDS011;72705;53.346;10.248;2024-02-26T14:08:35;13.95;;;8.73;;
82930;SDS011;72705;53.346;10.248;2024-02-26T14:11:01;15.23;;;9.33;;
82930;SDS011;72705;53.346;10.248;2024-02-26T14:13:27;16.08;;;8.35;;
82930;SDS011;72705;53.346;10.248;2024-02-26T14:15:53;16.48;;;9.77;;
82930;SDS011;72705;53.346;10.248;2024-02-26T14:18:18;14.23;;;9.13;;
82930;SDS011;72705;53.346;10.248;2024-02-26T14:20:44;14.90;;;8.57;;
82930;SDS011;72705;53.346;10.248;2024-02-26T14:23:14;14.23;;;8.50;;
82930;SDS011;72705;53.346;10.248;2024-02-26T14:25:40;14.43;;;8.90;;
82930;SDS011;72705;53.346;10.248;2024-02-26T14:28:05;15.53;;;8.43;;
82930;SDS011;72705;53.346;10.248;2024-02-26T14:30:31;16.85;;;8.40;;
82930;SDS011;72705;53.346;10.248;2024-02-26T14:32:57;14.65;;;7.95;;
82930;SDS011;72705;53.346;10.248;2024-02-26T14:35:24;20.03;;;8.57;;
82930;SDS011;72705;53.346;10.248;2024-02-26T14:40:17;16.33;;;9.00;;
82930;SDS011;72705;53.346;10.248;2024-02-26T14:42:42;15.35;;;9.60;;
82930;SDS011;72705;53.346;10.248;2024-02-26T14:45:07;16.55;;;9.55;;
82930;SDS011;72705;53.346;10.248;2024-02-26T14:47:37;16.33;;;9.10;;
82930;SDS011;72705;53.346;10.248;2024-02-26T14:50:03;18.60;;;10.68;;